KI5KMR-13 Weather Reports


Display with metric or nautical units.
time (UTC)temp
F
wind
direction
speed
MPH
gust
MPH
rain 1hr
in
rain 24hr
in
rain mn
in
humidity
%
barometer
mb
20220701050020 80 135 1.0 4.0 0.00 0.00 0.00 74 1015.2
20220701045020 80 135 1.0 5.0 0.00 0.00 0.00 73 1015.1
20220701044018 80 135 1.0 5.0 0.00 0.00 0.00 72 1015.0
20220701043020 81 0.0 2.0 0.00 0.00 0.00 71 1014.9
20220701042019 81 0.0 4.0 0.00 0.00 0.00 70 1014.9
20220701041018 82 135 2.0 7.0 0.00 0.00 0.00 69 1014.7
20220701040020 82 135 1.0 4.0 0.00 0.00 0.00 68 1014.6
20220701035019 82 135 2.0 7.0 0.00 0.00 0.00 67 1014.5
20220701034018 83 135 2.0 5.0 0.00 0.00 0.00 67 1014.3
20220701033019 83 135 2.0 8.0 0.00 0.00 0.00 65 1014.2
20220701032019 84 135 1.0 5.0 0.00 0.00 0.00 65 1014.1
20220701031019 84 135 3.0 7.0 0.00 0.00 0.00 64 1014.0
20220701030019 85 135 2.0 6.0 0.00 0.00 0.00 63 1013.8
20220701025021 85 135 2.0 7.0 0.00 0.00 0.00 62 1013.6
20220701024018 86 135 2.0 8.0 0.00 0.00 0.00 61 1013.5
20220701023019 87 135 2.0 7.0 0.00 0.00 0.00 60 1013.2
20220701022018 87 135 2.0 7.0 0.00 0.00 0.00 60 1013.1
20220701021019 87 135 2.0 8.0 0.00 0.00 0.00 59 1012.9
20220701020019 88 135 2.0 5.0 0.00 0.00 0.00 58 1012.9
20220701015018 89 135 2.0 7.0 0.00 0.00 0.00 57 1012.9
20220701014018 89 135 2.0 6.0 0.00 0.00 0.00 56 1012.8
20220701013019 90 135 1.0 5.0 0.00 0.00 0.00 54 1012.8
20220701012019 91 135 1.0 4.0 0.00 0.00 0.00 52 1012.8
20220701011019 92 135 1.0 3.0 0.00 0.00 0.00 49 1012.6
20220701010019 93 135 1.0 6.0 0.00 0.00 0.00 47 1012.5
20220701005019 94 135 1.0 3.0 0.00 0.00 0.00 46 1012.5
20220701004018 94 135 1.0 6.0 0.00 0.00 0.00 46 1012.4
20220701003024 95 135 1.0 4.0 0.00 0.00 0.00 45 1012.4
20220701002018 96 0.0 2.0 0.00 0.00 0.00 44 1012.4
20220701001018 96 135 1.0 3.0 0.00 0.00 0.00 43 1012.4
20220701000018 96 135 1.0 5.0 0.00 0.00 0.00 44 1012.5
20220630235019 97 135 1.0 3.0 0.00 0.00 0.00 43 1012.5
20220630234019 97 135 2.0 5.0 0.00 0.00 0.00 44 1012.5
20220630233018 98 135 1.0 5.0 0.00 0.00 0.00 41 1012.4
20220630232018 98 135 1.0 5.0 0.00 0.00 0.00 43 1012.5
20220630231019 98 135 1.0 6.0 0.00 0.00 0.00 42 1012.6
20220630230031 98 135 2.0 5.0 0.00 0.00 0.00 44 1012.7
20220630225034 98 135 1.0 4.0 0.00 0.00 0.00 43 1012.7
20220630224019 98 135 1.0 4.0 0.00 0.00 0.00 42 1012.8
20220630223024 98 135 1.0 4.0 0.00 0.00 0.00 42 1013.0
20220630222018 98 135 2.0 5.0 0.00 0.00 0.00 42 1013.0
20220630221018 98 135 1.0 4.0 0.00 0.00 0.00 41 1013.1
20220630220018 98 135 1.0 3.0 0.00 0.00 0.00 44 1013.3
20220630215901 99 135 1.0 4.0 0.00 0.00 0.00 42 1013.5
20220630205022 97 135 2.0 6.0 0.00 0.00 0.00 44 1014.1
20220630204843 98 135 1.0 5.0 0.00 0.00 0.00 44 1014.1
20220630202518 98 135 1.0 4.0 0.00 0.00 0.00 41 1014.4
20220630202302 98 135 1.0 3.0 0.00 0.00 0.00 42 1014.6
20220630190528 98 135 1.0 4.0 0.00 0.00 0.00 46 1015.6
20220630181019 95 135 1.0 3.0 0.00 0.00 0.00 49 1016.1
20220630180822 95 135 1.0 3.0 0.00 0.00 0.00 52 1016.3
20220630171523 92 135 1.0 6.0 0.00 0.00 0.00 54 1016.6
20220630171143 93 0.0 2.0 0.00 0.00 0.00 56 1016.8
20220630163550 90 135 1.0 3.0 0.00 0.00 0.00 59 1016.9
20220630160517 89 0.0 2.0 0.00 0.00 0.00 60 1016.9
20220630155517 88 135 1.0 3.0 0.00 0.00 0.00 61 1017.0
20220630154521 88 0.0 2.0 0.00 0.00 0.00 63 1017.0
20220630153517 87 135 1.0 3.0 0.00 0.00 0.00 64 1017.0
20220630152517 86 135 1.0 3.0 0.00 0.00 0.00 64 1017.1
20220630151517 86 0.0 2.0 0.00 0.00 0.00 67 1017.4
20220630150517 85 135 1.0 3.0 0.00 0.00 0.00 70 1017.5
20220630145517 84 135 1.0 2.0 0.00 0.00 0.00 71 1017.5
20220630144516 83 0.0 2.0 0.00 0.00 0.00 73 1017.5
20220630143517 81 135 1.0 3.0 0.00 0.00 0.00 76 1017.7
20220630142517 80 135 1.0 2.0 0.00 0.00 0.00 77 1017.6
20220630141522 80 135 1.0 3.0 0.00 0.00 0.00 77 1017.5
20220630140630 79 0.0 1.0 0.00 0.00 0.00 79 1017.5
20220630135607 78 0.0 1.0 0.00 0.00 0.00 81 1017.5
20220630134556 78 0.0 0.0 0.00 0.00 0.00 83 1017.6
20220630133552 77 0.0 4.0 0.00 0.00 0.00 84 1017.6
20220630132622 76 0.0 1.0 0.00 0.00 0.00 85 1017.6
20220630131517 75 0.0 1.0 0.00 0.00 0.00 87 1017.7
20220630130516 75 0.0 1.0 0.00 0.00 0.00 89 1017.6
20220630125516 74 0.0 1.0 0.00 0.00 0.00 90 1017.6
20220630124541 72 0.0 0.0 0.00 0.00 0.00 91 1017.7
20220630123517 72 0.0 0.0 0.00 0.00 0.00 91 1017.6
20220630122517 72 0.0 0.0 0.00 0.00 0.00 90 1017.6
20220630121517 72 0.0 0.0 0.00 0.00 0.00 92 1017.6
20220630120517 71 0.0 0.0 0.00 0.00 0.00 90 1017.6
20220630115516 71 0.0 0.0 0.00 0.00 0.00 90 1017.7
20220630114517 71 0.0 0.0 0.00 0.00 0.00 91 1017.6
20220630113517 71 0.0 0.0 0.00 0.00 0.00 90 1017.6
20220630112517 72 0.0 0.0 0.00 0.00 0.00 89 1017.5
20220630111517 72 0.0 0.0 0.00 0.00 0.00 89 1017.5